createdAt,value
2022-11-15T00:00:01.928Z,100932.37
2022-11-15T00:03:26.675Z,100932.94
2022-11-15T00:06:50.190Z,100933.78
2022-11-15T00:10:15.452Z,100934.97
2022-11-15T00:13:38.585Z,100928.72
2022-11-15T00:17:02.755Z,100929.44
2022-11-15T00:20:28.199Z,100920.66
2022-11-15T00:23:51.281Z,100927.09
2022-11-15T00:27:14.385Z,100929.03
2022-11-15T00:30:37.980Z,100925.31
2022-11-15T00:34:00.441Z,100925.75
2022-11-15T00:37:22.690Z,100925.59
2022-11-15T00:40:49.482Z,100919.44
2022-11-15T00:44:12.828Z,100917.16
2022-11-15T00:47:36.548Z,100906.28
2022-11-15T00:51:01.859Z,100911.69
2022-11-15T00:54:26.662Z,100905.09
2022-11-15T00:57:51.364Z,100899.41
2022-11-15T01:01:16.858Z,100895.34
2022-11-15T01:04:42.346Z,100896.31
2022-11-15T01:08:07.631Z,100896.66
2022-11-15T01:11:29.996Z,100894.28
2022-11-15T01:14:55.080Z,100890.56
2022-11-15T01:18:18.546Z,100899.16
2022-11-15T01:21:43.825Z,100890.03
2022-11-15T01:25:09.116Z,100878.09
2022-11-15T01:28:33.021Z,100878.69
2022-11-15T01:32:00.734Z,100870.50
2022-11-15T01:35:24.946Z,100872.88
2022-11-15T01:38:50.076Z,100868.59
2022-11-15T01:42:18.614Z,100866.44
2022-11-15T01:45:46.270Z,100870.13
2022-11-15T01:49:18.290Z,100870.16
2022-11-15T01:52:45.205Z,100869.03
2022-11-15T01:56:09.879Z,100865.72
2022-11-15T01:59:33.014Z,100861.00
2022-11-15T02:02:59.106Z,100859.22
2022-11-15T02:06:25.705Z,100853.63
2022-11-15T02:09:52.435Z,100857.69
2022-11-15T02:13:17.664Z,100854.84
2022-11-15T02:17:01.836Z,100852.81
2022-11-15T02:20:42.540Z,100849.63
2022-11-15T02:24:20.451Z,100851.63
2022-11-15T02:28:03.523Z,100846.03
2022-11-15T02:31:38.179Z,100845.69
2022-11-15T02:35:09.776Z,100839.59
2022-11-15T02:38:37.944Z,100841.88
2022-11-15T02:42:05.838Z,100837.22
2022-11-15T02:45:33.819Z,100828.88
2022-11-15T02:48:57.553Z,100821.09
2022-11-15T02:52:25.430Z,100822.78
2022-11-15T02:55:50.708Z,100828.53
2022-11-15T02:59:21.404Z,100831.25
2022-11-15T03:02:45.101Z,100830.31
2022-11-15T03:06:17.795Z,100823.97
2022-11-15T03:09:54.209Z,100825.19
2022-11-15T03:13:25.139Z,100825.31
2022-11-15T03:16:56.004Z,100828.03
2022-11-15T03:20:22.693Z,100825.03
2022-11-15T03:23:46.932Z,100828.75
2022-11-15T03:27:13.436Z,100815.59
2022-11-15T03:30:45.879Z,100812.75
2022-11-15T03:34:11.743Z,100805.44
2022-11-15T03:37:47.631Z,100804.25
2022-11-15T03:41:34.004Z,100802.38
2022-11-15T03:45:04.110Z,100805.72
2022-11-15T03:48:33.149Z,100799.84
2022-11-15T03:51:59.718Z,100797.34
2022-11-15T03:55:22.886Z,100803.78
2022-11-15T03:58:45.714Z,100793.75
2022-11-15T04:02:10.458Z,100786.94
2022-11-15T04:05:35.345Z,100779.78
2022-11-15T04:08:59.295Z,100778.47
2022-11-15T04:12:36.795Z,100771.06
2022-11-15T04:16:01.616Z,100763.16
2022-11-15T04:19:43.390Z,100763.69
2022-11-15T04:23:28.868Z,100750.88
2022-11-15T04:26:53.806Z,100750.75
2022-11-15T04:30:19.572Z,100767.47
2022-11-15T04:33:44.606Z,100767.22
2022-11-15T04:37:16.653Z,100764.75
2022-11-15T04:40:41.197Z,100761.16
2022-11-15T04:44:06.273Z,100756.13
2022-11-15T04:47:32.397Z,100760.66
2022-11-15T04:50:59.140Z,100753.38
2022-11-15T04:54:22.010Z,100754.22
2022-11-15T04:57:46.830Z,100751.09
2022-11-15T05:01:16.953Z,100746.09
2022-11-15T05:04:42.442Z,100737.63
2022-11-15T05:08:06.306Z,100733.19
2022-11-15T05:11:30.231Z,100734.41
2022-11-15T05:14:54.917Z,100738.56
2022-11-15T05:18:23.479Z,100739.88
2022-11-15T05:21:48.986Z,100741.56
2022-11-15T05:25:12.996Z,100735.56
2022-11-15T05:28:36.751Z,100742.72
2022-11-15T05:32:04.033Z,100744.63
2022-11-15T05:35:37.532Z,100739.97
2022-11-15T05:39:00.980Z,100746.56
2022-11-15T05:42:24.746Z,100739.34
2022-11-15T05:45:49.540Z,100739.81
2022-11-15T05:49:15.984Z,100739.81
2022-11-15T05:52:39.162Z,100745.81
2022-11-15T05:56:01.442Z,100746.66
2022-11-15T05:59:23.409Z,100739.44
2022-11-15T06:02:45.443Z,100731.19
2022-11-15T06:06:06.351Z,100733.44
2022-11-15T06:09:28.268Z,100731.56
2022-11-15T06:12:56.958Z,100723.19
2022-11-15T06:16:18.394Z,100721.53
2022-11-15T06:19:40.769Z,100727.97
2022-11-15T06:23:03.412Z,100729.13
2022-11-15T06:26:25.301Z,100715.56
2022-11-15T06:29:48.150Z,100713.00
2022-11-15T06:33:10.504Z,100729.66
2022-11-15T06:36:32.082Z,100726.13
2022-11-15T06:39:53.066Z,100739.66
2022-11-15T06:43:13.965Z,100739.38
2022-11-15T06:46:35.196Z,100724.63
2022-11-15T06:49:56.403Z,100730.97
2022-11-15T06:53:18.029Z,100733.56
2022-11-15T06:56:40.166Z,100732.72
2022-11-15T07:00:03.300Z,100730.59
2022-11-15T07:03:25.520Z,100737.25
2022-11-15T07:06:49.594Z,100727.44
2022-11-15T07:10:11.177Z,100732.91
2022-11-15T07:13:37.415Z,100720.12
2022-11-15T07:16:58.799Z,100714.19
2022-11-15T07:20:22.309Z,100724.19
2022-11-15T07:23:43.651Z,100727.47
2022-11-15T07:27:05.024Z,100714.81
2022-11-15T07:30:27.261Z,100718.63
2022-11-15T07:33:48.610Z,100713.44
2022-11-15T07:37:09.863Z,100719.22
2022-11-15T07:40:32.983Z,100715.66
2022-11-15T07:43:54.136Z,100714.19
2022-11-15T07:47:15.799Z,100717.72
2022-11-15T07:50:42.820Z,100728.25
2022-11-15T07:54:04.139Z,100720.84
2022-11-15T07:57:24.889Z,100702.53
2022-11-15T08:00:46.110Z,100703.25
2022-11-15T08:04:07.629Z,100707.56
2022-11-15T08:07:33.169Z,100702.34
2022-11-15T08:10:54.972Z,100711.34
2022-11-15T08:14:16.989Z,100703.72
2022-11-15T08:17:38.705Z,100693.75
2022-11-15T08:21:03.095Z,100692.91
2022-11-15T08:24:25.002Z,100686.38
2022-11-15T08:27:46.453Z,100692.50
2022-11-15T08:31:08.662Z,100682.66
2022-11-15T08:34:29.889Z,100673.47
2022-11-15T08:37:53.388Z,100670.91
2022-11-15T08:41:26.157Z,100663.53
2022-11-15T08:44:48.942Z,100654.63
2022-11-15T08:48:11.322Z,100662.38
2022-11-15T08:51:33.365Z,100664.22
2022-11-15T08:54:55.488Z,100658.16
2022-11-15T08:58:16.687Z,100655.19
2022-11-15T09:01:40.137Z,100644.47
2022-11-15T09:05:00.780Z,100655.88
2022-11-15T09:12:03.202Z,100653.25
2022-11-15T09:15:24.557Z,100659.00
2022-11-15T09:18:45.683Z,100643.06
2022-11-15T09:22:08.895Z,100638.88
2022-11-15T09:25:31.182Z,100624.22
2022-11-15T09:28:53.314Z,100619.22
2022-11-15T09:32:14.477Z,100625.75
2022-11-15T09:35:36.209Z,100619.06
2022-11-15T09:38:59.265Z,100614.66
2022-11-15T09:42:50.219Z,100608.22
2022-11-15T09:46:19.811Z,100617.69
2022-11-15T09:49:28.316Z,100616.03
2022-11-15T09:52:31.371Z,100609.78
2022-11-15T09:55:38.824Z,100607.03
2022-11-15T09:58:47.203Z,100609.50
2022-11-15T10:01:56.858Z,100602.97
2022-11-15T10:05:01.627Z,100610.22
2022-11-15T10:08:13.296Z,100606.72
2022-11-15T10:11:38.567Z,100601.03
2022-11-15T10:14:42.765Z,100602.72
2022-11-15T10:18:05.324Z,100595.22
2022-11-15T10:21:23.060Z,100592.72
2022-11-15T10:24:31.104Z,100573.72
2022-11-15T10:27:35.135Z,100562.19
2022-11-15T10:30:43.468Z,100561.91
2022-11-15T10:33:47.018Z,100563.81
2022-11-15T10:36:58.053Z,100557.88
2022-11-15T10:40:05.372Z,100562.03
2022-11-15T10:43:12.456Z,100555.91
2022-11-15T10:46:45.706Z,100549.78
2022-11-15T10:49:55.255Z,100542.16
2022-11-15T10:53:00.160Z,100539.94
2022-11-15T10:56:07.957Z,100528.81
2022-11-15T10:59:17.301Z,100529.16
2022-11-15T11:02:30.189Z,100533.06
2022-11-15T11:05:39.922Z,100528.84
2022-11-15T11:09:02.087Z,100516.47
2022-11-15T11:12:06.834Z,100507.84
2022-11-15T11:15:13.182Z,100508.09
2022-11-15T11:18:24.028Z,100503.66
2022-11-15T11:21:38.437Z,100489.84
2022-11-15T11:24:55.542Z,100493.25
2022-11-15T11:27:58.978Z,100494.66
2022-11-15T11:31:12.478Z,100481.88
2022-11-15T11:34:34.568Z,100477.19
2022-11-15T11:37:48.803Z,100488.78
2022-11-15T11:40:56.020Z,100491.69
2022-11-15T11:44:07.295Z,100484.03
2022-11-15T11:47:11.915Z,100479.03
2022-11-15T11:50:16.796Z,100471.00
2022-11-15T11:53:26.716Z,100459.41
2022-11-15T11:56:37.754Z,100466.22
2022-11-15T11:59:44.781Z,100461.78
2022-11-15T12:02:50.235Z,100454.47
2022-11-15T12:06:06.602Z,100437.00
2022-11-15T12:09:18.261Z,100442.69
2022-11-15T12:12:33.953Z,100437.37
2022-11-15T12:15:49.353Z,100433.41
2022-11-15T12:18:55.381Z,100430.19
2022-11-15T12:22:13.384Z,100425.94
2022-11-15T12:25:19.859Z,100427.84
2022-11-15T12:28:33.908Z,100407.69
2022-11-15T12:31:38.015Z,100413.97
2022-11-15T12:34:50.216Z,100409.53
2022-11-15T12:37:56.279Z,100404.81
2022-11-15T12:41:13.793Z,100404.09
2022-11-15T12:44:32.002Z,100403.97
2022-11-15T12:47:34.790Z,100406.87
2022-11-15T12:50:56.377Z,100401.72
2022-11-15T12:53:59.973Z,100390.19
2022-11-15T12:57:08.995Z,100388.63
2022-11-15T13:00:14.756Z,100385.31
2022-11-15T13:03:20.309Z,100381.09
2022-11-15T13:06:42.176Z,100372.69
2022-11-15T13:09:48.334Z,100375.06
2022-11-15T13:12:52.673Z,100371.75
2022-11-15T13:16:02.920Z,100375.63
2022-11-15T13:19:05.944Z,100374.06
2022-11-15T13:22:31.232Z,100373.31
2022-11-15T13:25:40.594Z,100371.44
2022-11-15T13:28:49.715Z,100380.31
2022-11-15T13:31:54.855Z,100371.53
2022-11-15T13:35:02.628Z,100373.63
2022-11-15T13:38:06.279Z,100361.28
2022-11-15T13:41:20.364Z,100360.28
2022-11-15T13:44:25.649Z,100366.94
2022-11-15T13:47:31.062Z,100360.44
2022-11-15T13:50:37.138Z,100350.69
2022-11-15T13:53:44.341Z,100349.69
2022-11-15T13:56:52.255Z,100351.56
2022-11-15T14:00:01.220Z,100334.91
2022-11-15T14:03:16.315Z,100325.75
2022-11-15T14:06:22.782Z,100321.81
2022-11-15T14:09:26.158Z,100317.59
2022-11-15T14:12:31.545Z,100323.59
2022-11-15T14:15:36.725Z,100315.09
2022-11-15T14:18:45.684Z,100317.91
2022-11-15T14:22:08.139Z,100316.13
2022-11-15T14:25:14.395Z,100315.47
2022-11-15T14:28:24.330Z,100318.16
2022-11-15T14:31:28.153Z,100319.91
2022-11-15T14:34:33.304Z,100311.00
2022-11-15T14:37:40.215Z,100301.41
2022-11-15T14:40:44.751Z,100304.22
2022-11-15T14:43:49.015Z,100295.38
2022-11-15T14:46:52.840Z,100297.34
2022-11-15T14:49:56.281Z,100294.72
2022-11-15T14:52:59.614Z,100293.31
2022-11-15T14:56:03.461Z,100273.03
2022-11-15T14:59:06.574Z,100267.50
2022-11-15T15:02:24.007Z,100267.75
2022-11-15T15:05:31.685Z,100276.38
2022-11-15T15:08:35.262Z,100271.00
2022-11-15T15:11:38.267Z,100277.91
2022-11-15T15:14:42.865Z,100269.34
2022-11-15T15:17:46.901Z,100276.94
2022-11-15T15:20:58.122Z,100267.94
2022-11-15T15:24:02.718Z,100267.22
2022-11-15T15:27:06.890Z,100259.59
2022-11-15T15:30:10.462Z,100268.06
2022-11-15T15:33:15.227Z,100257.00
2022-11-15T15:36:19.412Z,100246.19
2022-11-15T15:39:22.494Z,100242.06
2022-11-15T15:42:24.964Z,100257.13
2022-11-15T15:45:29.122Z,100260.91
2022-11-15T15:48:35.381Z,100262.00
2022-11-15T15:51:40.204Z,100252.72
2022-11-15T15:54:43.573Z,100253.53
2022-11-15T15:57:48.573Z,100256.72
2022-11-15T16:00:53.159Z,100253.00
2022-11-15T16:03:56.620Z,100246.87
2022-11-15T16:07:04.457Z,100257.25
2022-11-15T16:10:26.773Z,100248.13
2022-11-15T16:13:31.434Z,100244.47
2022-11-15T16:16:37.860Z,100242.28
2022-11-15T16:19:42.623Z,100239.81
2022-11-15T16:22:48.987Z,100242.16
2022-11-15T16:25:55.551Z,100241.34
2022-11-15T16:29:01.306Z,100237.19
2022-11-15T16:32:06.166Z,100246.44
2022-11-15T16:35:15.342Z,100250.87
2022-11-15T16:38:18.815Z,100253.25
2022-11-15T16:41:22.424Z,100243.25
2022-11-15T16:44:25.926Z,100230.50
2022-11-15T16:47:30.749Z,100231.50
2022-11-15T16:50:41.850Z,100228.84
2022-11-15T16:53:45.157Z,100229.38
2022-11-15T16:56:48.536Z,100227.31
2022-11-15T16:59:51.494Z,100220.94
2022-11-15T17:02:57.926Z,100225.75
2022-11-15T17:06:03.420Z,100212.19
2022-11-15T17:09:12.632Z,100215.66
2022-11-15T17:12:20.860Z,100217.47
2022-11-15T17:15:26.346Z,100216.56
2022-11-15T17:18:34.875Z,100208.81
2022-11-15T17:21:41.835Z,100214.47
2022-11-15T17:24:56.263Z,100211.78
2022-11-15T17:28:03.135Z,100195.56
2022-11-15T17:31:14.179Z,100190.47
2022-11-15T17:34:20.129Z,100193.91
2022-11-15T17:37:27.384Z,100198.78
2022-11-15T17:40:34.286Z,100196.72
2022-11-15T17:43:40.609Z,100186.69
2022-11-15T17:46:48.763Z,100180.88
2022-11-15T17:49:57.297Z,100178.53
2022-11-15T17:53:04.222Z,100177.13
2022-11-15T17:56:13.313Z,100166.63
2022-11-15T17:59:21.714Z,100161.59
2022-11-15T18:02:28.671Z,100159.25
2022-11-15T18:05:34.999Z,100158.87
2022-11-15T18:08:40.390Z,100151.56
2022-11-15T18:11:47.100Z,100141.94
2022-11-15T18:14:53.935Z,100146.50
2022-11-15T18:18:01.930Z,100146.69
2022-11-15T18:21:21.331Z,100144.66
2022-11-15T18:24:27.573Z,100149.16
2022-11-15T18:27:32.941Z,100138.59
2022-11-15T18:30:43.389Z,100139.44
2022-11-15T18:33:47.259Z,100137.94
2022-11-15T18:36:55.971Z,100135.97
2022-11-15T18:40:05.329Z,100138.31
2022-11-15T18:43:12.680Z,100136.97
2022-11-15T18:46:20.748Z,100139.16
2022-11-15T18:49:27.365Z,100138.16
2022-11-15T18:52:34.375Z,100128.91
2022-11-15T18:55:45.720Z,100128.63
2022-11-15T18:58:55.840Z,100119.03
2022-11-15T19:02:01.621Z,100118.72
2022-11-15T19:05:05.609Z,100124.56
2022-11-15T19:08:11.250Z,100116.78
2022-11-15T19:11:18.797Z,100118.34
2022-11-15T19:14:27.070Z,100106.69
2022-11-15T19:17:32.674Z,100105.78
2022-11-15T19:20:42.161Z,100100.72
2022-11-15T19:23:49.302Z,100105.63
2022-11-15T19:26:57.676Z,100096.16
2022-11-15T19:30:07.406Z,100096.06
2022-11-15T19:33:15.822Z,100088.59
2022-11-15T19:36:27.434Z,100089.28
2022-11-15T19:39:34.812Z,100087.56
2022-11-15T19:42:43.064Z,100078.81
2022-11-15T19:45:54.966Z,100085.88
2022-11-15T19:49:04.857Z,100085.31
2022-11-15T19:52:09.886Z,100075.88
2022-11-15T19:55:14.193Z,100082.59
2022-11-15T19:58:19.203Z,100078.09
2022-11-15T20:01:27.102Z,100070.06
2022-11-15T20:04:34.184Z,100074.41
2022-11-15T20:07:38.402Z,100068.44
2022-11-15T20:10:45.872Z,100059.06
2022-11-15T20:13:51.249Z,100039.66
2022-11-15T20:16:57.745Z,100046.22
2022-11-15T20:20:02.318Z,100040.09
2022-11-15T20:23:07.501Z,100035.91
2022-11-15T20:26:13.655Z,100035.16
2022-11-15T20:29:22.043Z,100036.87
2022-11-15T20:32:28.670Z,100034.25
2022-11-15T20:35:35.870Z,100026.81
2022-11-15T20:38:41.222Z,100027.91
2022-11-15T20:41:48.831Z,100023.84
2022-11-15T20:44:56.013Z,100016.59
2022-11-15T20:48:04.246Z,100018.38
2022-11-15T20:51:16.034Z,100022.94
2022-11-15T20:54:25.432Z,100012.41
2022-11-15T20:57:31.452Z,100010.91
2022-11-15T21:00:44.775Z,100008.78
2022-11-15T21:03:49.317Z,100001.47
2022-11-15T21:06:53.650Z,100010.16
2022-11-15T21:10:17.139Z,99999.50
2022-11-15T21:13:24.367Z,100009.47
2022-11-15T21:16:29.790Z,100000.81
2022-11-15T21:19:36.949Z,100004.56
2022-11-15T21:22:44.698Z,99996.50
2022-11-15T21:25:53.063Z,99989.88
2022-11-15T21:29:01.323Z,99982.62
2022-11-15T21:32:07.739Z,99980.16
2022-11-15T21:35:13.153Z,99980.00
2022-11-15T21:38:19.634Z,99980.78
2022-11-15T21:41:26.005Z,99976.38
2022-11-15T21:44:33.263Z,99977.31
2022-11-15T21:47:41.956Z,99970.19
2022-11-15T21:50:56.191Z,99966.75
2022-11-15T21:54:04.776Z,99967.66
2022-11-15T21:57:12.340Z,99962.00
2022-11-15T22:00:39.138Z,99974.91
2022-11-15T22:03:47.551Z,99957.28
2022-11-15T22:06:54.543Z,99980.91
2022-11-15T22:10:01.458Z,99955.84
2022-11-15T22:13:08.005Z,99964.34
2022-11-15T22:16:16.161Z,99968.75
2022-11-15T22:19:22.948Z,99968.19
2022-11-15T22:22:28.453Z,99956.50
2022-11-15T22:25:33.990Z,99943.72
2022-11-15T22:28:40.718Z,99947.19
2022-11-15T22:31:46.212Z,99939.81
2022-11-15T22:34:52.104Z,99936.84
2022-11-15T22:37:56.826Z,99933.84
2022-11-15T22:41:01.417Z,99925.44
2022-11-15T22:44:06.116Z,99927.22
2022-11-15T22:47:14.821Z,99911.75
2022-11-15T22:50:25.730Z,99914.19
2022-11-15T22:53:33.600Z,99904.84
2022-11-15T22:56:38.327Z,99894.13
2022-11-15T22:59:49.749Z,99901.34
2022-11-15T23:02:56.079Z,99905.50
2022-11-15T23:06:06.338Z,99895.31
2022-11-15T23:09:11.626Z,99887.75
2022-11-15T23:12:37.443Z,99889.88
2022-11-15T23:16:26.248Z,99895.00
2022-11-15T23:19:52.938Z,99884.00
2022-11-15T23:23:18.784Z,99890.81
2022-11-15T23:26:44.701Z,99886.53
2022-11-15T23:30:08.603Z,99878.59
2022-11-15T23:33:36.376Z,99870.38
2022-11-15T23:36:43.049Z,99866.56
2022-11-15T23:39:54.200Z,99864.28
2022-11-15T23:43:00.284Z,99862.94
2022-11-15T23:46:08.035Z,99861.81
2022-11-15T23:49:13.169Z,99861.34
2022-11-15T23:52:17.327Z,99852.09
2022-11-15T23:55:21.465Z,99848.16
2022-11-15T23:58:26.711Z,99843.97
